createdAt,value
2022-11-23T00:01:30.017Z,81.40
2022-11-23T00:04:02.104Z,81.40
2022-11-23T00:06:29.760Z,81.40
2022-11-23T00:08:57.054Z,81.40
2022-11-23T00:11:26.577Z,81.40
2022-11-23T00:13:54.614Z,81.50
2022-11-23T00:16:29.273Z,81.60
2022-11-23T00:18:59.492Z,81.80
2022-11-23T00:21:29.681Z,81.80
2022-11-23T00:23:56.630Z,81.90
2022-11-23T00:26:23.557Z,82.00
2022-11-23T00:28:51.064Z,82.10
2022-11-23T00:31:20.511Z,82.10
2022-11-23T00:33:53.545Z,82.10
2022-11-23T00:36:21.622Z,82.10
2022-11-23T00:38:49.650Z,82.10
2022-11-23T00:41:21.418Z,82.20
2022-11-23T00:43:49.292Z,82.20
2022-11-23T00:46:27.019Z,82.30
2022-11-23T00:48:56.683Z,82.40
2022-11-23T00:51:30.493Z,82.40
2022-11-23T00:53:59.524Z,82.50
2022-11-23T00:56:28.738Z,82.50
2022-11-23T00:58:58.009Z,82.60
2022-11-23T01:01:34.494Z,82.60
2022-11-23T01:04:04.719Z,82.80
2022-11-23T01:06:38.413Z,82.80
2022-11-23T01:09:12.331Z,82.80
2022-11-23T01:11:39.613Z,82.80
2022-11-23T01:14:06.648Z,82.80
2022-11-23T01:16:40.506Z,82.80
2022-11-23T01:19:13.597Z,82.70
2022-11-23T01:21:40.949Z,82.60
2022-11-23T01:24:14.161Z,82.50
2022-11-23T01:26:41.795Z,82.50
2022-11-23T01:29:08.956Z,83.30
2022-11-23T01:31:44.859Z,82.60
2022-11-23T01:34:15.659Z,82.60
2022-11-23T01:36:43.038Z,82.80
2022-11-23T01:39:11.401Z,83.00
2022-11-23T01:41:42.214Z,83.20
2022-11-23T01:44:30.554Z,83.50
2022-11-23T01:47:01.632Z,83.90
2022-11-23T01:49:51.651Z,84.00
2022-11-23T01:52:23.757Z,84.40
2022-11-23T01:54:57.234Z,84.40
2022-11-23T01:57:39.576Z,84.60
2022-11-23T02:00:10.323Z,84.60
2022-11-23T02:02:51.488Z,84.70
2022-11-23T02:05:21.428Z,84.80
2022-11-23T02:07:50.039Z,84.80
2022-11-23T02:10:18.389Z,85.00
2022-11-23T02:12:45.745Z,84.90
2022-11-23T02:15:12.870Z,84.90
2022-11-23T02:17:42.991Z,84.80
2022-11-23T02:20:14.340Z,84.70
2022-11-23T02:23:02.243Z,84.70
2022-11-23T02:26:02.945Z,84.60
2022-11-23T02:28:37.731Z,84.50
2022-11-23T02:31:06.679Z,84.30
2022-11-23T02:33:33.549Z,84.20
2022-11-23T02:36:03.023Z,84.10
2022-11-23T02:38:34.058Z,84.00
2022-11-23T02:41:01.442Z,83.80
2022-11-23T02:43:28.773Z,83.80
2022-11-23T02:46:01.949Z,84.40
2022-11-23T02:48:29.261Z,83.60
2022-11-23T02:50:56.086Z,83.50
2022-11-23T02:53:24.221Z,83.40
2022-11-23T02:55:52.840Z,83.20
2022-11-23T02:58:19.758Z,83.00
2022-11-23T03:00:47.196Z,82.90
2022-11-23T03:03:17.571Z,82.70
2022-11-23T03:05:44.755Z,82.60
2022-11-23T03:08:11.693Z,82.30
2022-11-23T03:10:40.389Z,82.10
2022-11-23T03:13:07.406Z,82.00
2022-11-23T03:15:36.151Z,81.80
2022-11-23T03:18:05.085Z,81.70
2022-11-23T03:20:32.707Z,81.50
2022-11-23T03:23:00.000Z,81.40
2022-11-23T03:25:27.272Z,81.40
2022-11-23T03:27:56.447Z,81.40
2022-11-23T03:30:23.765Z,81.40
2022-11-23T03:32:51.450Z,81.40
2022-11-23T03:35:19.271Z,82.10
2022-11-23T03:38:13.670Z,81.40
2022-11-23T03:40:44.550Z,81.50
2022-11-23T03:43:21.482Z,81.50
2022-11-23T03:45:48.554Z,81.60
2022-11-23T03:48:16.270Z,81.60
2022-11-23T03:50:44.717Z,81.60
2022-11-23T03:53:12.358Z,81.60
2022-11-23T03:55:39.996Z,81.70
2022-11-23T03:58:07.072Z,81.80
2022-11-23T04:00:36.099Z,81.80
2022-11-23T04:03:04.342Z,82.00
2022-11-23T04:05:50.322Z,82.00
2022-11-23T04:08:40.242Z,82.10
2022-11-23T04:11:12.160Z,82.10
2022-11-23T04:13:41.768Z,82.00
2022-11-23T04:16:09.278Z,82.00
2022-11-23T04:18:37.901Z,82.00
2022-11-23T04:21:05.442Z,82.10
2022-11-23T04:23:32.518Z,82.20
2022-11-23T04:26:00.173Z,82.20
2022-11-23T04:28:28.358Z,82.30
2022-11-23T04:30:55.277Z,82.40
2022-11-23T04:33:23.018Z,82.40
2022-11-23T04:35:50.369Z,82.40
2022-11-23T04:38:17.565Z,82.30
2022-11-23T04:40:48.679Z,82.40
2022-11-23T04:43:15.963Z,82.50
2022-11-23T04:45:43.745Z,82.50
2022-11-23T04:48:19.613Z,82.60
2022-11-23T04:50:46.982Z,82.60
2022-11-23T04:53:20.182Z,82.70
2022-11-23T04:55:47.905Z,82.70
2022-11-23T04:58:16.380Z,82.90
2022-11-23T05:00:43.506Z,82.90
2022-11-23T05:03:12.001Z,82.80
2022-11-23T05:05:41.471Z,82.80
2022-11-23T05:08:09.574Z,82.80
2022-11-23T05:10:46.451Z,83.00
2022-11-23T05:13:14.043Z,83.20
2022-11-23T05:15:40.903Z,83.30
2022-11-23T05:18:10.440Z,83.50
2022-11-23T05:20:38.701Z,83.80
2022-11-23T05:23:06.327Z,83.90
2022-11-23T05:25:34.626Z,84.00
2022-11-23T05:28:23.321Z,84.10
2022-11-23T05:30:52.301Z,84.20
2022-11-23T05:33:19.327Z,84.30
2022-11-23T05:35:46.539Z,84.40
2022-11-23T05:38:15.750Z,84.40
2022-11-23T05:40:45.793Z,85.10
2022-11-23T05:43:14.225Z,84.40
2022-11-23T05:45:42.626Z,84.30
2022-11-23T05:48:10.522Z,84.20
2022-11-23T05:50:50.902Z,84.10
2022-11-23T05:53:25.568Z,84.10
2022-11-23T05:56:03.344Z,84.00
2022-11-23T05:58:35.239Z,83.90
2022-11-23T06:01:02.552Z,83.70
2022-11-23T06:03:34.217Z,83.60
2022-11-23T06:06:01.537Z,83.40
2022-11-23T06:08:34.980Z,83.30
2022-11-23T06:11:02.584Z,83.20
2022-11-23T06:13:30.199Z,83.10
2022-11-23T06:15:58.025Z,82.80
2022-11-23T06:18:32.256Z,82.60
2022-11-23T06:21:02.366Z,82.50
2022-11-23T06:23:29.430Z,82.30
2022-11-23T06:26:02.114Z,82.20
2022-11-23T06:28:31.936Z,82.10
2022-11-23T06:31:05.369Z,82.10
2022-11-23T06:33:34.388Z,82.00
2022-11-23T06:36:03.765Z,82.00
2022-11-23T06:38:37.775Z,82.00
2022-11-23T06:41:11.458Z,82.10
2022-11-23T06:43:39.861Z,82.10
2022-11-23T06:46:07.602Z,82.00
2022-11-23T06:48:39.281Z,82.00
2022-11-23T06:51:07.591Z,81.90
2022-11-23T06:53:36.480Z,81.90
2022-11-23T06:56:06.944Z,82.00
2022-11-23T06:58:34.706Z,82.00
2022-11-23T07:01:08.969Z,82.00
2022-11-23T07:03:42.105Z,82.20
2022-11-23T07:06:20.802Z,82.30
2022-11-23T07:08:49.998Z,82.40
2022-11-23T07:11:29.201Z,82.50
2022-11-23T07:13:56.126Z,82.60
2022-11-23T07:16:26.856Z,82.60
2022-11-23T07:18:54.086Z,82.70
2022-11-23T07:21:23.255Z,82.80
2022-11-23T07:23:50.450Z,82.90
2022-11-23T07:26:17.492Z,83.00
2022-11-23T07:28:44.939Z,83.10
2022-11-23T07:31:15.865Z,83.30
2022-11-23T07:33:46.831Z,83.50
2022-11-23T07:36:14.461Z,83.60
2022-11-23T07:38:43.115Z,83.80
2022-11-23T07:41:11.953Z,84.00
2022-11-23T07:43:56.977Z,84.10
2022-11-23T07:46:24.095Z,84.30
2022-11-23T07:48:51.020Z,84.50
2022-11-23T07:51:19.997Z,84.80
2022-11-23T07:53:47.423Z,85.20
2022-11-23T07:56:14.425Z,86.00
2022-11-23T07:58:41.320Z,87.10
2022-11-23T08:01:08.727Z,87.70
2022-11-23T08:03:35.797Z,88.00
2022-11-23T08:06:02.900Z,88.10
2022-11-23T08:08:30.249Z,88.60
2022-11-23T08:10:57.149Z,87.50
2022-11-23T08:13:24.044Z,87.00
2022-11-23T08:15:55.251Z,86.40
2022-11-23T08:18:25.881Z,86.00
2022-11-23T08:20:54.290Z,85.70
2022-11-23T08:23:21.546Z,85.20
2022-11-23T08:25:48.524Z,84.30
2022-11-23T08:28:15.672Z,83.50
2022-11-23T08:30:42.738Z,82.00
2022-11-23T08:33:10.192Z,80.20
2022-11-23T08:35:38.995Z,78.90
2022-11-23T08:38:08.646Z,77.40
2022-11-23T08:40:36.805Z,76.50
2022-11-23T08:43:04.689Z,75.80
2022-11-23T08:45:32.163Z,75.10
2022-11-23T08:48:03.826Z,75.20
2022-11-23T08:50:34.409Z,74.50
2022-11-23T08:53:01.334Z,74.40
2022-11-23T08:55:29.570Z,74.20
2022-11-23T08:58:00.491Z,73.80
2022-11-23T09:00:28.402Z,73.60
2022-11-23T09:02:56.990Z,73.60
2022-11-23T09:05:24.043Z,73.80
2022-11-23T09:07:51.073Z,73.70
2022-11-23T09:10:19.357Z,73.40
2022-11-23T09:12:47.883Z,73.20
2022-11-23T09:15:16.010Z,73.40
2022-11-23T09:17:43.091Z,73.30
2022-11-23T09:20:11.467Z,73.10
2022-11-23T09:22:38.947Z,73.30
2022-11-23T09:25:07.137Z,73.90
2022-11-23T09:27:34.210Z,74.30
2022-11-23T09:30:01.103Z,74.30
2022-11-23T09:32:28.173Z,73.80
2022-11-23T09:34:55.701Z,72.70
2022-11-23T09:37:22.598Z,70.10
2022-11-23T09:39:49.599Z,68.80
2022-11-23T09:42:41.084Z,66.90
2022-11-23T09:45:47.198Z,64.50
2022-11-23T09:48:49.093Z,63.30
2022-11-23T09:51:22.900Z,63.30
2022-11-23T09:54:06.533Z,64.10
2022-11-23T09:56:35.636Z,62.40
2022-11-23T09:59:25.554Z,60.90
2022-11-23T10:01:52.621Z,58.90
2022-11-23T10:04:20.506Z,59.60
2022-11-23T10:06:56.835Z,58.50
2022-11-23T10:09:54.228Z,55.50
2022-11-23T10:13:33.323Z,54.20
2022-11-23T10:16:37.459Z,54.10
2022-11-23T10:19:24.333Z,54.20
2022-11-23T10:22:36.847Z,55.00
2022-11-23T10:25:16.600Z,53.80
2022-11-23T10:27:49.959Z,53.90
2022-11-23T10:30:19.328Z,53.60
2022-11-23T10:32:58.432Z,52.80
2022-11-23T10:35:38.052Z,52.10
2022-11-23T10:38:20.052Z,50.80
2022-11-23T10:41:07.909Z,50.00
2022-11-23T10:43:46.829Z,49.00
2022-11-23T10:46:39.574Z,48.20
2022-11-23T10:49:14.074Z,46.70
2022-11-23T10:51:49.745Z,45.70
2022-11-23T10:54:38.445Z,46.20
2022-11-23T10:57:30.587Z,45.00
2022-11-23T11:00:05.084Z,44.20
2022-11-23T11:02:48.197Z,44.70
2022-11-23T11:08:30.865Z,42.90
2022-11-23T11:11:05.188Z,42.50
2022-11-23T11:13:40.594Z,42.00
2022-11-23T11:16:30.838Z,43.30
2022-11-23T11:18:58.587Z,41.40
2022-11-23T11:21:35.530Z,42.70
2022-11-23T11:24:04.468Z,43.00
2022-11-23T11:26:35.011Z,43.50
2022-11-23T11:29:09.931Z,43.70
2022-11-23T11:31:56.654Z,44.60
2022-11-23T11:34:31.355Z,45.70
2022-11-23T11:37:01.209Z,46.10
2022-11-23T11:39:41.023Z,45.90
2022-11-23T11:42:17.068Z,46.00
2022-11-23T11:44:47.446Z,46.30
2022-11-23T11:47:36.946Z,47.20
2022-11-23T11:50:31.671Z,46.00
2022-11-23T11:53:13.348Z,46.40
2022-11-23T11:56:07.408Z,45.30
2022-11-23T11:58:42.771Z,44.70
2022-11-23T12:01:34.022Z,45.90
2022-11-23T12:04:17.283Z,44.70
2022-11-23T12:06:54.138Z,44.10
2022-11-23T12:09:31.526Z,43.90
2022-11-23T12:12:02.059Z,42.40
2022-11-23T12:14:29.076Z,42.60
2022-11-23T12:20:08.601Z,43.90
2022-11-23T12:23:10.208Z,41.40
2022-11-23T12:25:42.936Z,41.20
2022-11-23T12:28:32.758Z,42.30
2022-11-23T12:31:08.986Z,41.30
2022-11-23T12:34:04.713Z,41.10
2022-11-23T12:37:29.299Z,40.60
2022-11-23T12:41:11.547Z,39.50
2022-11-23T12:44:20.417Z,37.40
2022-11-23T12:47:25.520Z,38.50
2022-11-23T12:50:21.497Z,37.40
2022-11-23T12:53:07.199Z,38.10
2022-11-23T12:56:02.891Z,37.90
2022-11-23T12:58:33.539Z,38.50
2022-11-23T13:01:15.950Z,39.40
2022-11-23T13:04:16.619Z,39.00
2022-11-23T13:07:29.679Z,38.50
2022-11-23T13:10:25.474Z,38.70
2022-11-23T13:13:31.770Z,39.40
2022-11-23T13:16:23.437Z,39.60
2022-11-23T13:19:11.882Z,40.40
2022-11-23T13:21:47.252Z,41.20
2022-11-23T13:24:40.105Z,41.70
2022-11-23T13:27:13.645Z,41.60
2022-11-23T13:29:53.177Z,42.30
2022-11-23T13:32:41.425Z,42.60
2022-11-23T13:35:21.051Z,42.70
2022-11-23T13:38:14.100Z,43.00
2022-11-23T13:40:43.871Z,42.70
2022-11-23T13:43:32.147Z,43.10
2022-11-23T13:46:23.172Z,42.90
2022-11-23T13:48:57.824Z,42.90
2022-11-23T13:51:34.119Z,43.30
2022-11-23T13:54:20.174Z,43.20
2022-11-23T13:56:57.586Z,43.30
2022-11-23T13:59:24.585Z,43.50
2022-11-23T14:02:10.135Z,43.90
2022-11-23T14:04:42.639Z,44.40
2022-11-23T14:07:29.995Z,45.00
2022-11-23T14:10:18.527Z,45.60
2022-11-23T14:12:54.844Z,46.40
2022-11-23T14:15:48.950Z,47.00
2022-11-23T14:18:39.173Z,47.70
2022-11-23T14:21:38.886Z,48.60
2022-11-23T14:24:34.056Z,49.20
2022-11-23T14:27:46.921Z,49.70
2022-11-23T14:30:27.271Z,50.10
2022-11-23T14:33:19.085Z,50.50
2022-11-23T14:36:19.963Z,50.80
2022-11-23T14:39:28.848Z,51.10
2022-11-23T14:42:01.606Z,51.80
2022-11-23T14:44:35.614Z,52.00
2022-11-23T14:47:08.957Z,52.40
2022-11-23T14:49:36.998Z,52.90
2022-11-23T14:52:05.487Z,53.30
2022-11-23T14:54:33.048Z,53.70
2022-11-23T14:57:04.192Z,54.20
2022-11-23T14:59:37.689Z,54.70
2022-11-23T15:02:45.047Z,55.30
2022-11-23T15:05:28.544Z,55.70
2022-11-23T15:08:11.554Z,56.40
2022-11-23T15:11:12.306Z,56.80
2022-11-23T15:13:50.338Z,57.40
2022-11-23T15:16:20.028Z,57.60
2022-11-23T15:18:47.563Z,57.70
2022-11-23T15:21:27.650Z,58.00
2022-11-23T15:23:57.810Z,58.80
2022-11-23T15:29:36.167Z,59.10
2022-11-23T15:32:30.534Z,59.90
2022-11-23T15:35:08.110Z,59.90
2022-11-23T15:37:46.921Z,60.70
2022-11-23T15:40:19.154Z,60.90
2022-11-23T15:42:51.172Z,60.80
2022-11-23T15:45:46.159Z,61.30
2022-11-23T15:48:29.400Z,62.60
2022-11-23T15:50:58.427Z,62.50
2022-11-23T15:53:43.636Z,63.50
2022-11-23T15:56:29.443Z,63.60
2022-11-23T15:58:58.961Z,64.30
2022-11-23T16:01:26.470Z,64.50
2022-11-23T16:04:04.841Z,64.90
2022-11-23T16:06:47.196Z,65.30
2022-11-23T16:09:52.767Z,66.00
2022-11-23T16:12:23.058Z,66.70
2022-11-23T16:14:50.290Z,66.30
2022-11-23T16:17:24.974Z,66.70
2022-11-23T16:20:02.154Z,67.30
2022-11-23T16:22:36.718Z,67.40
2022-11-23T16:25:32.775Z,67.60
2022-11-23T16:28:15.459Z,67.70
2022-11-23T16:30:46.560Z,67.80
2022-11-23T16:33:16.689Z,68.10
2022-11-23T16:35:43.963Z,68.40
2022-11-23T16:38:12.770Z,68.50
2022-11-23T16:40:40.930Z,68.90
2022-11-23T16:43:10.890Z,69.20
2022-11-23T16:45:44.828Z,69.60
2022-11-23T16:48:27.079Z,70.00
2022-11-23T16:50:55.942Z,70.50
2022-11-23T16:53:23.551Z,70.30
2022-11-23T16:55:54.035Z,70.60
2022-11-23T16:58:21.871Z,70.90
2022-11-23T17:00:49.570Z,71.10
2022-11-23T17:03:19.081Z,71.20
2022-11-23T17:05:47.767Z,72.30
2022-11-23T17:08:19.793Z,71.70
2022-11-23T17:10:50.674Z,72.10
2022-11-23T17:13:27.315Z,72.20
2022-11-23T17:15:55.619Z,72.60
2022-11-23T17:18:22.575Z,72.60
2022-11-23T17:20:50.057Z,72.70
2022-11-23T17:23:17.161Z,73.00
2022-11-23T17:25:44.363Z,73.20
2022-11-23T17:28:16.924Z,73.40
2022-11-23T17:30:44.216Z,73.60
2022-11-23T17:33:12.266Z,73.70
2022-11-23T17:35:40.382Z,73.80
2022-11-23T17:38:13.296Z,74.00
2022-11-23T17:40:40.328Z,74.30
2022-11-23T17:43:07.215Z,74.40
2022-11-23T17:45:34.737Z,74.60
2022-11-23T17:48:03.588Z,74.80
2022-11-23T17:50:31.077Z,75.40
2022-11-23T17:52:57.989Z,75.00
2022-11-23T17:55:24.964Z,75.20
2022-11-23T17:57:51.893Z,75.30
2022-11-23T18:00:23.735Z,75.50
2022-11-23T18:02:52.049Z,75.60
2022-11-23T18:05:21.854Z,75.60
2022-11-23T18:07:50.518Z,76.40
2022-11-23T18:10:18.160Z,75.80
2022-11-23T18:12:46.398Z,75.80
2022-11-23T18:15:13.635Z,75.90
2022-11-23T18:17:40.769Z,76.10
2022-11-23T18:20:09.999Z,76.10
2022-11-23T18:22:37.428Z,76.10
2022-11-23T18:25:04.629Z,76.20
2022-11-23T18:27:31.827Z,76.40
2022-11-23T18:29:58.821Z,76.50
2022-11-23T18:32:25.940Z,76.60
2022-11-23T18:34:52.867Z,76.70
2022-11-23T18:37:20.330Z,76.80
2022-11-23T18:39:47.243Z,76.80
2022-11-23T18:42:14.580Z,77.00
2022-11-23T18:44:41.646Z,77.00
2022-11-23T18:47:08.604Z,77.10
2022-11-23T18:49:35.856Z,77.20
2022-11-23T18:52:03.234Z,77.30
2022-11-23T18:54:30.071Z,77.40
2022-11-23T18:56:57.075Z,77.50
2022-11-23T19:02:11.467Z,77.70
2022-11-23T19:04:41.189Z,77.80
2022-11-23T19:07:08.456Z,78.00
2022-11-23T19:09:35.642Z,77.90
2022-11-23T19:12:07.051Z,78.00
2022-11-23T19:14:33.923Z,78.00
2022-11-23T19:17:00.914Z,78.00
2022-11-23T19:19:28.018Z,78.00
2022-11-23T19:21:54.959Z,78.20
2022-11-23T19:24:22.138Z,78.20
2022-11-23T19:26:49.467Z,78.20
2022-11-23T19:29:19.696Z,78.30
2022-11-23T19:31:54.367Z,78.30
2022-11-23T19:34:21.970Z,78.30
2022-11-23T19:36:49.050Z,78.20
2022-11-23T19:39:16.274Z,78.20
2022-11-23T19:41:43.376Z,78.10
2022-11-23T19:44:10.392Z,78.10
2022-11-23T19:46:37.512Z,78.20
2022-11-23T19:49:04.898Z,78.20
2022-11-23T19:51:31.889Z,78.20
2022-11-23T19:54:00.994Z,78.20
2022-11-23T19:56:29.466Z,78.20
2022-11-23T19:59:00.430Z,78.20
2022-11-23T20:01:32.195Z,78.20
2022-11-23T20:04:08.331Z,78.10
2022-11-23T20:06:42.349Z,78.20
2022-11-23T20:09:16.687Z,78.30
2022-11-23T20:11:48.031Z,78.20
2022-11-23T20:14:17.959Z,78.20
2022-11-23T20:16:44.827Z,78.30
2022-11-23T20:19:12.040Z,78.20
2022-11-23T20:21:39.065Z,78.30
2022-11-23T20:24:13.155Z,78.20
2022-11-23T20:26:41.887Z,78.30
2022-11-23T20:29:09.597Z,78.30
2022-11-23T20:31:37.243Z,78.40
2022-11-23T20:34:07.390Z,78.40
2022-11-23T20:36:37.776Z,78.40
2022-11-23T20:39:08.439Z,78.50
2022-11-23T20:41:37.119Z,78.60
2022-11-23T20:44:11.807Z,78.70
2022-11-23T20:49:26.903Z,78.80
2022-11-23T20:51:53.806Z,78.80
2022-11-23T20:54:20.836Z,78.80
2022-11-23T20:56:47.887Z,78.80
2022-11-23T20:59:15.047Z,79.60
2022-11-23T21:01:41.964Z,79.00
2022-11-23T21:04:09.406Z,79.10
2022-11-23T21:06:39.526Z,79.10
2022-11-23T21:09:09.471Z,79.10
2022-11-23T21:11:55.559Z,79.10
2022-11-23T21:14:27.010Z,79.90
2022-11-23T21:16:59.531Z,79.20
2022-11-23T21:19:33.582Z,79.20
2022-11-23T21:22:27.032Z,79.20
2022-11-23T21:24:53.953Z,79.40
2022-11-23T21:27:24.767Z,79.20
2022-11-23T21:29:52.812Z,79.20
2022-11-23T21:32:19.650Z,79.30
2022-11-23T21:34:46.716Z,80.10
2022-11-23T21:37:13.809Z,79.50
2022-11-23T21:39:41.819Z,79.60
2022-11-23T21:42:09.092Z,79.80
2022-11-23T21:44:36.581Z,80.10
2022-11-23T21:47:03.713Z,80.40
2022-11-23T21:49:30.704Z,80.80
2022-11-23T21:51:57.726Z,81.10
2022-11-23T21:54:24.706Z,81.30
2022-11-23T21:56:51.606Z,81.60
2022-11-23T21:59:18.724Z,81.80
2022-11-23T22:01:45.630Z,82.10
2022-11-23T22:04:15.654Z,82.20
2022-11-23T22:06:45.563Z,82.30
2022-11-23T22:09:13.536Z,82.40
2022-11-23T22:11:43.189Z,82.50
2022-11-23T22:14:16.483Z,82.60
2022-11-23T22:16:54.340Z,82.70
2022-11-23T22:19:21.446Z,82.80
2022-11-23T22:21:48.458Z,82.90
2022-11-23T22:24:21.125Z,83.00
2022-11-23T22:26:48.744Z,83.10
2022-11-23T22:29:16.273Z,83.10
2022-11-23T22:31:43.700Z,83.20
2022-11-23T22:34:13.214Z,83.20
2022-11-23T22:36:40.907Z,83.30
2022-11-23T22:39:08.315Z,83.30
2022-11-23T22:41:39.314Z,83.30
2022-11-23T22:44:08.952Z,83.40
2022-11-23T22:46:37.159Z,83.30
2022-11-23T22:49:05.034Z,83.30
2022-11-23T22:51:32.171Z,83.30
2022-11-23T22:54:00.715Z,83.40
2022-11-23T22:56:29.489Z,83.40
2022-11-23T22:58:56.597Z,83.40
2022-11-23T23:01:29.726Z,83.40
2022-11-23T23:03:59.373Z,83.30
2022-11-23T23:06:29.515Z,83.30
2022-11-23T23:08:58.801Z,83.30
2022-11-23T23:11:28.725Z,83.20
2022-11-23T23:13:56.409Z,83.10
2022-11-23T23:16:23.826Z,83.00
2022-11-23T23:18:51.518Z,83.00
2022-11-23T23:21:22.496Z,83.00
2022-11-23T23:23:52.865Z,83.00
2022-11-23T23:26:23.761Z,82.90
2022-11-23T23:28:59.165Z,82.90
2022-11-23T23:31:27.505Z,82.90
2022-11-23T23:33:54.498Z,82.80
2022-11-23T23:36:23.587Z,82.80
2022-11-23T23:38:51.288Z,82.80
2022-11-23T23:41:18.899Z,82.70
2022-11-23T23:43:47.945Z,82.70
2022-11-23T23:46:15.637Z,82.60
2022-11-23T23:48:42.640Z,82.60
2022-11-23T23:51:22.270Z,82.70
2022-11-23T23:53:51.288Z,82.60
2022-11-23T23:56:25.874Z,82.60
2022-11-23T23:58:56.185Z,82.60
